Aérodrome :
LOGIN :

S'inscrire | Disclaimer

   EN    FR    IT 

 










Légende :    VFR   VFR Marginal   IFR   IFR Intensif   IFR Très Intensif
Visi : 
Plafond : 
>= 8 km
>= 3000ft
5 à 8 km
1000 à 3000 ft
1500m à 5 km
500 à 1000 ft
800 à 1500m
200 à 500 ft
< 800m
< 200 ft
Symboles :   Orages  Brouillard  Fortes neiges  Fortes précipitations  Vent > 20 kt
SIGMETs :   Divers  Orages  Givrage  Turbulence  Onde Orograph.  Cendres Volcan.






- Altitude de l'aérodrome : 33 ft
- Code IATA : PLQ


EYPA - Palanga

DERNIER METAR :
  • 130850Z 13011KT 9999 -RA BKN012 OVC043 03/01 Q0998 R19/1///95

METARs EXPIRÉS :
  • 130820Z 14010KT 110V170 9999 BKN010 OVC052 02/01 Q0999 R19/1///95
  • 130750Z 14009KT 9000 OVC009 02/01 Q0999 R19/1///95
  • 130720Z 14010KT 100V160 7000 OVC007 02/01 Q0999 R19/1///95
  • 130650Z 14009KT 6000 OVC007 02/01 Q1000 R19/1///95
  • 130620Z 14009KT 6000 OVC007 01/00 Q1000 R19/1///95
  • 130550Z 14009KT 9999 SCT010 BKN099 01/M01 Q1000 R19/1///95

TAF TAF EYPA
Valide du 13 à 06h jusqu'au 14 à 06h UTC


130505Z 1306/1406 14012G24KT 8000 BKN015
TEMPO 1306/1312 5000 -RASN BR BKN005 OVC010
TEMPO 1315/1321 3000 RASN BR BKN005
BECMG 1321/1322 OVC010
TEMPO 1322/1406 OVC005



MET'MAP, la Météo Aéronautique d'un coup d'oeil ! - Copyright ORBIFLY Décembre 2007 - Disclaimer

ORBIFLY MET'MAP TEAM :

Programmation & Développement : Alexandra Zaïnal
Sur une idée originale de : Baudouin d'Aumeries
Assistance à la programmation : Marc-Olivier Méhu
Soutien technique & logistique : Manuel Goepfert

Contact : metmap@orbifly.com




SOURCES & CREDITS :

   NOAA